Time;durP1;ratioP1;P1;durP2;ratioP2;P2;SDS_P1;SDS_P2;PMS_P1;PMS_P2;Temp;Humidity;BMP_temperature;BMP_pressure;BME280_temperature;BME280_humidity;BME280_pressure;Samples;Min_cycle;Max_cycle;Signal;HPM_P1;HPM_P2
2022/05/12 00:00:25;;;;;;;9.63;4.00;;;;;;;;;;5026421;28;20422;-83
2022/05/12 00:02:51;;;;;;;5.50;3.57;;;;;;;;;;5026877;28;20422;-84
2022/05/12 00:05:18;;;;;;;5.30;3.90;;;;;;;;;;5043249;28;20465;-84
2022/05/12 00:07:44;;;;;;;4.80;3.93;;;;;;;;;;5044236;28;20421;-85
2022/05/12 00:10:13;;;;;;;6.63;3.80;;;;;;;;;;5026655;28;20414;-86
2022/05/12 00:12:39;;;;;;;10.97;3.80;;;;;;;;;;5026056;28;20815;-85
2022/05/12 00:15:07;;;;;;;5.30;4.20;;;;;;;;;;5025372;28;20406;-85
2022/05/12 00:17:33;;;;;;;5.33;3.63;;;;;;;;;;5044038;28;20406;-86
2022/05/12 00:20:00;;;;;;;5.83;4.30;;;;;;;;;;5044018;28;20433;-84
2022/05/12 00:22:26;;;;;;;6.13;3.93;;;;;;;;;;5026884;28;20430;-84
2022/05/12 00:24:52;;;;;;;7.00;3.77;;;;;;;;;;5044222;28;20413;-87
2022/05/12 00:27:18;;;;;;;5.20;3.97;;;;;;;;;;5045201;28;20544;-83
2022/05/12 00:29:44;;;;;;;4.97;4.00;;;;;;;;;;5041951;28;20413;-81
2022/05/12 00:32:10;;;;;;;4.57;4.00;;;;;;;;;;5043698;28;20486;-84
2022/05/12 00:34:37;;;;;;;8.03;3.97;;;;;;;;;;5042637;28;20398;-83
2022/05/12 00:37:03;;;;;;;6.57;4.37;;;;;;;;;;5023886;28;20412;-84
2022/05/12 00:39:29;;;;;;;5.93;4.63;;;;;;;;;;5041234;28;20425;-84
2022/05/12 00:41:55;;;;;;;5.43;3.73;;;;;;;;;;5042672;28;20402;-86
2022/05/12 00:44:21;;;;;;;7.30;4.47;;;;;;;;;;5024407;28;20502;-86
2022/05/12 00:46:49;;;;;;;5.20;3.60;;;;;;;;;;5041470;28;20456;-85
2022/05/12 00:49:29;;;;;;;4.60;3.80;;;;;;;;;;5024493;28;20414;-85
2022/05/12 00:51:57;;;;;;;4.53;3.90;;;;;;;;;;5024246;28;20456;-85
2022/05/12 00:54:30;;;;;;;6.17;4.47;;;;;;;;;;5024494;28;20419;-85
2022/05/12 00:56:57;;;;;;;4.63;4.00;;;;;;;;;;5028571;28;20468;-85
2022/05/12 00:59:25;;;;;;;5.73;4.07;;;;;;;;;;5043312;28;20402;-86
2022/05/12 01:01:52;;;;;;;6.27;4.57;;;;;;;;;;5042903;28;20441;-86
2022/05/12 01:04:19;;;;;;;7.50;4.90;;;;;;;;;;5042750;28;20418;-86
2022/05/12 01:06:45;;;;;;;5.40;4.00;;;;;;;;;;5042613;28;20449;-85
2022/05/12 01:09:12;;;;;;;7.10;5.00;;;;;;;;;;5042763;28;20411;-86
2022/05/12 01:11:38;;;;;;;5.97;5.07;;;;;;;;;;5043329;28;20417;-86
2022/05/12 01:14:05;;;;;;;6.80;4.37;;;;;;;;;;5042247;28;20452;-86
2022/05/12 01:16:36;;;;;;;5.33;4.77;;;;;;;;;;5043085;28;20402;-86
2022/05/12 01:19:03;;;;;;;4.80;4.10;;;;;;;;;;5027250;28;20749;-86
2022/05/12 01:21:29;;;;;;;7.43;5.13;;;;;;;;;;5043368;28;20417;-85
2022/05/12 01:23:55;;;;;;;5.03;4.43;;;;;;;;;;5042508;28;20430;-86
2022/05/12 01:26:21;;;;;;;10.50;4.50;;;;;;;;;;5023872;28;20447;-86
2022/05/12 01:28:49;;;;;;;6.33;4.47;;;;;;;;;;5042852;28;20415;-86
2022/05/12 01:31:19;;;;;;;5.60;4.43;;;;;;;;;;5024470;28;20410;-86
2022/05/12 01:33:45;;;;;;;4.50;3.93;;;;;;;;;;5041390;28;20521;-86
2022/05/12 01:36:11;;;;;;;9.20;4.13;;;;;;;;;;5024547;28;20407;-86
2022/05/12 01:38:37;;;;;;;7.33;4.33;;;;;;;;;;5042296;28;20438;-86
2022/05/12 01:41:03;;;;;;;5.03;4.17;;;;;;;;;;5042171;28;20403;-86
2022/05/12 01:43:29;;;;;;;7.73;3.73;;;;;;;;;;5042668;28;20452;-85
2022/05/12 01:45:56;;;;;;;6.47;4.03;;;;;;;;;;5042181;28;20453;-84
2022/05/12 01:48:22;;;;;;;4.47;3.67;;;;;;;;;;5042391;28;20402;-85
2022/05/12 01:50:48;;;;;;;7.20;4.70;;;;;;;;;;5024305;28;20406;-85
2022/05/12 01:53:15;;;;;;;9.20;4.60;;;;;;;;;;5024682;28;20441;-85
2022/05/12 01:55:43;;;;;;;7.67;4.80;;;;;;;;;;5042856;28;20425;-85
2022/05/12 01:58:09;;;;;;;5.80;4.03;;;;;;;;;;5043958;28;20455;-85
2022/05/12 02:00:36;;;;;;;6.00;4.33;;;;;;;;;;5044558;28;20414;-85
2022/05/12 02:03:02;;;;;;;5.80;3.60;;;;;;;;;;5060955;28;20437;-86
2022/05/12 02:05:29;;;;;;;6.20;4.03;;;;;;;;;;5043696;28;21003;-84
2022/05/12 02:07:55;;;;;;;4.93;3.50;;;;;;;;;;5062126;28;20493;-85
2022/05/12 02:10:24;;;;;;;7.33;4.17;;;;;;;;;;5061355;28;20405;-85
2022/05/12 02:12:50;;;;;;;7.80;4.00;;;;;;;;;;5100718;23;20426;-86
2022/05/12 02:15:16;;;;;;;6.50;4.20;;;;;;;;;;5083352;28;20509;-86
2022/05/12 02:17:42;;;;;;;5.20;3.90;;;;;;;;;;5072281;28;20475;-87
2022/05/12 02:20:10;;;;;;;5.53;4.30;;;;;;;;;;5063576;28;20401;-87
2022/05/12 02:22:36;;;;;;;8.20;4.27;;;;;;;;;;5064276;28;20397;-87
2022/05/12 02:25:03;;;;;;;6.70;3.70;;;;;;;;;;5045893;28;20449;-87
2022/05/12 02:27:29;;;;;;;5.87;4.20;;;;;;;;;;5064358;28;20780;-87
2022/05/12 02:29:55;;;;;;;6.27;3.77;;;;;;;;;;5065576;28;20418;-88
2022/05/12 02:32:21;;;;;;;6.67;3.70;;;;;;;;;;5065417;28;20406;-87
2022/05/12 02:34:47;;;;;;;8.07;3.83;;;;;;;;;;5064212;28;20417;-87
2022/05/12 02:37:13;;;;;;;7.10;3.77;;;;;;;;;;5063448;28;20412;-87
2022/05/12 02:39:40;;;;;;;4.30;3.90;;;;;;;;;;5063530;28;20432;-87
2022/05/12 02:42:07;;;;;;;5.70;4.17;;;;;;;;;;5063695;28;20393;-87
2022/05/12 02:44:34;;;;;;;8.53;4.97;;;;;;;;;;5064008;28;20422;-87
2022/05/12 02:47:00;;;;;;;5.37;3.63;;;;;;;;;;5064506;28;20456;-87
2022/05/12 02:49:26;;;;;;;5.60;3.97;;;;;;;;;;5063381;28;20406;-87
2022/05/12 02:51:53;;;;;;;4.00;3.60;;;;;;;;;;5063730;28;20394;-87
2022/05/12 02:54:19;;;;;;;5.43;3.67;;;;;;;;;;5063721;28;20425;-87
2022/05/12 02:56:46;;;;;;;4.57;3.73;;;;;;;;;;5045823;28;20409;-87
2022/05/12 02:59:12;;;;;;;5.63;4.07;;;;;;;;;;5064218;28;20402;-87
2022/05/12 03:01:38;;;;;;;5.33;3.43;;;;;;;;;;5045524;28;20432;-87
2022/05/12 03:04:05;;;;;;;10.33;4.13;;;;;;;;;;5069881;28;20421;-87
2022/05/12 03:06:32;;;;;;;4.93;3.70;;;;;;;;;;5073113;28;20484;-87
2022/05/12 03:08:58;;;;;;;6.50;3.60;;;;;;;;;;5072816;28;20409;-87
2022/05/12 03:11:24;;;;;;;5.20;3.50;;;;;;;;;;5071442;28;20424;-87
2022/05/12 03:13:50;;;;;;;4.37;3.70;;;;;;;;;;5068728;28;20452;-87
2022/05/12 03:16:18;;;;;;;4.43;4.03;;;;;;;;;;5063350;28;20442;-87
2022/05/12 03:18:46;;;;;;;6.00;3.87;;;;;;;;;;5045200;28;20500;-87
2022/05/12 03:21:13;;;;;;;5.23;3.90;;;;;;;;;;5062711;28;20413;-87
2022/05/12 03:23:40;;;;;;;5.13;3.70;;;;;;;;;;5062204;28;20464;-87
2022/05/12 03:26:06;;;;;;;5.20;4.07;;;;;;;;;;5063850;28;20849;-87
2022/05/12 03:28:33;;;;;;;5.17;3.93;;;;;;;;;;5045963;28;20421;-87
2022/05/12 03:30:59;;;;;;;5.60;3.20;;;;;;;;;;5071506;28;20409;-86
2022/05/12 03:33:25;;;;;;;6.57;3.80;;;;;;;;;;5051554;28;20444;-87
2022/05/12 03:35:51;;;;;;;3.20;2.90;;;;;;;;;;5047295;28;20421;-87
2022/05/12 03:38:18;;;;;;;6.43;4.03;;;;;;;;;;5063690;28;20459;-87
2022/05/12 03:40:44;;;;;;;3.63;3.30;;;;;;;;;;5063286;28;20402;-87
2022/05/12 03:43:11;;;;;;;6.03;3.47;;;;;;;;;;5063532;28;20421;-87
2022/05/12 03:45:37;;;;;;;5.93;4.17;;;;;;;;;;5044471;28;20495;-87
2022/05/12 03:48:04;;;;;;;4.27;3.10;;;;;;;;;;5062022;28;20489;-87
2022/05/12 03:50:30;;;;;;;5.83;3.60;;;;;;;;;;5062972;28;20469;-87
2022/05/12 03:52:56;;;;;;;4.87;3.37;;;;;;;;;;5063279;28;20456;-86
2022/05/12 03:55:24;;;;;;;3.50;3.10;;;;;;;;;;5062487;28;20409;-87
2022/05/12 03:57:53;;;;;;;5.03;3.47;;;;;;;;;;5062474;28;20413;-88
2022/05/12 04:00:21;;;;;;;6.37;3.40;;;;;;;;;;5044155;28;20424;-87
2022/05/12 04:02:47;;;;;;;7.20;3.30;;;;;;;;;;5062829;28;20402;-87
2022/05/12 04:05:14;;;;;;;5.27;3.40;;;;;;;;;;5062996;28;20464;-87
2022/05/12 04:07:41;;;;;;;8.30;3.50;;;;;;;;;;5063076;28;20964;-87
2022/05/12 04:10:08;;;;;;;3.40;2.93;;;;;;;;;;5063073;28;20781;-87
2022/05/12 04:12:34;;;;;;;6.00;3.50;;;;;;;;;;5062981;28;20398;-88
2022/05/12 04:15:00;;;;;;;5.70;3.70;;;;;;;;;;5045395;28;20488;-88
2022/05/12 04:17:26;;;;;;;5.17;3.53;;;;;;;;;;5063529;28;20408;-88
2022/05/12 04:19:52;;;;;;;4.77;3.43;;;;;;;;;;5062619;28;20466;-88
2022/05/12 04:22:19;;;;;;;9.27;3.77;;;;;;;;;;5063483;28;20420;-88
2022/05/12 04:24:45;;;;;;;5.57;3.17;;;;;;;;;;5045022;28;20425;-88
2022/05/12 04:27:12;;;;;;;5.83;4.20;;;;;;;;;;5045796;28;20447;-88
2022/05/12 04:29:42;;;;;;;7.60;3.20;;;;;;;;;;5063981;28;20405;-87
2022/05/12 04:32:08;;;;;;;4.13;3.10;;;;;;;;;;5063863;28;20394;-84
2022/05/12 04:37:30;;;;;;;6.67;3.33;;;;;;;;;;5068190;28;20385;-87
2022/05/12 04:40:02;;;;;;;6.03;2.87;;;;;;;;;;5067558;28;20427;-88
2022/05/12 04:42:28;;;;;;;5.23;2.80;;;;;;;;;;5068921;28;20419;-86
2022/05/12 04:44:55;;;;;;;5.10;2.57;;;;;;;;;;5050332;28;20444;-86
2022/05/12 04:47:21;;;;;;;6.50;3.50;;;;;;;;;;5067297;28;20407;-86
2022/05/12 04:49:47;;;;;;;4.97;3.17;;;;;;;;;;5067806;28;20472;-86
2022/05/12 04:52:13;;;;;;;7.37;3.40;;;;;;;;;;5069032;28;20447;-84
2022/05/12 04:54:39;;;;;;;5.60;3.43;;;;;;;;;;5066196;28;20460;-88
2022/05/12 04:57:06;;;;;;;7.97;3.33;;;;;;;;;;5053988;28;20508;-87
2022/05/12 04:59:33;;;;;;;5.50;3.80;;;;;;;;;;5076321;28;20410;-88
2022/05/12 05:01:59;;;;;;;3.27;2.80;;;;;;;;;;5067866;28;20409;-88
2022/05/12 05:04:25;;;;;;;4.70;3.13;;;;;;;;;;5063733;28;20433;-87
2022/05/12 05:06:51;;;;;;;5.33;3.20;;;;;;;;;;5075398;28;20441;-87
2022/05/12 05:09:17;;;;;;;12.17;3.33;;;;;;;;;;5068437;28;20410;-88
2022/05/12 05:11:43;;;;;;;6.90;3.03;;;;;;;;;;5066316;28;20413;-88
2022/05/12 05:14:09;;;;;;;7.10;3.00;;;;;;;;;;5065723;28;20437;-88
2022/05/12 05:16:36;;;;;;;5.80;2.87;;;;;;;;;;5049858;28;20458;-88
2022/05/12 05:19:02;;;;;;;8.67;3.30;;;;;;;;;;5067217;28;20402;-87
2022/05/12 05:21:28;;;;;;;9.50;3.40;;;;;;;;;;5070439;28;20469;-87
2022/05/12 05:23:54;;;;;;;5.33;2.53;;;;;;;;;;5073848;28;20433;-86
2022/05/12 05:26:20;;;;;;;8.27;3.80;;;;;;;;;;5063348;28;20949;-85
2022/05/12 05:28:47;;;;;;;5.77;3.00;;;;;;;;;;5062137;28;20405;-85
2022/05/12 05:31:13;;;;;;;3.87;3.10;;;;;;;;;;5062438;28;20552;-88
2022/05/12 05:33:39;;;;;;;4.27;3.00;;;;;;;;;;5049781;28;20540;-87
2022/05/12 05:36:05;;;;;;;4.97;3.00;;;;;;;;;;5067958;28;20766;-88
2022/05/12 05:38:31;;;;;;;5.93;3.10;;;;;;;;;;5066840;28;20401;-88
2022/05/12 05:40:57;;;;;;;6.00;3.20;;;;;;;;;;5067040;28;20410;-86
2022/05/12 05:43:23;;;;;;;6.47;3.43;;;;;;;;;;5066033;28;20433;-86
2022/05/12 05:45:50;;;;;;;3.83;2.83;;;;;;;;;;5063761;28;20560;-88
2022/05/12 05:48:16;;;;;;;4.80;3.47;;;;;;;;;;5048009;28;20421;-88
2022/05/12 05:53:30;;;;;;;6.67;3.20;;;;;;;;;;5064460;28;20479;-88
2022/05/12 05:55:58;;;;;;;6.77;3.23;;;;;;;;;;5065732;28;20404;-88
2022/05/12 05:58:24;;;;;;;6.50;3.17;;;;;;;;;;5065657;28;20463;-88
2022/05/12 06:00:51;;;;;;;10.30;2.97;;;;;;;;;;5063929;28;20406;-88
2022/05/12 06:03:17;;;;;;;4.43;3.20;;;;;;;;;;5064489;28;20471;-88
2022/05/12 06:05:44;;;;;;;10.13;3.20;;;;;;;;;;5047702;28;20456;-88
2022/05/12 06:08:11;;;;;;;5.30;3.33;;;;;;;;;;5046771;28;20414;-88
2022/05/12 06:10:38;;;;;;;4.70;3.20;;;;;;;;;;5064963;28;20401;-88
2022/05/12 06:13:05;;;;;;;5.17;3.43;;;;;;;;;;5064015;28;20445;-88
2022/05/12 06:15:31;;;;;;;9.13;3.03;;;;;;;;;;5065100;28;20390;-87
2022/05/12 06:17:57;;;;;;;9.53;3.87;;;;;;;;;;5065041;28;20497;-87
2022/05/12 06:20:23;;;;;;;5.90;3.03;;;;;;;;;;5063910;28;20417;-87
2022/05/12 06:22:50;;;;;;;11.80;3.30;;;;;;;;;;5070154;28;20457;-87
2022/05/12 06:25:17;;;;;;;6.63;3.50;;;;;;;;;;5067192;28;20449;-85
2022/05/12 06:27:44;;;;;;;5.80;3.07;;;;;;;;;;5064708;28;20410;-88
2022/05/12 06:30:11;;;;;;;8.17;3.37;;;;;;;;;;5063511;28;20893;-88
2022/05/12 06:32:38;;;;;;;5.97;3.23;;;;;;;;;;5063884;28;20409;-88
2022/05/12 06:35:05;;;;;;;8.63;3.10;;;;;;;;;;5063143;28;20409;-88
2022/05/12 06:37:32;;;;;;;6.87;3.70;;;;;;;;;;5063922;28;20401;-88
2022/05/12 06:39:58;;;;;;;7.90;3.60;;;;;;;;;;5063451;28;20455;-86
2022/05/12 06:42:24;;;;;;;7.30;2.67;;;;;;;;;;5063353;28;20405;-87
2022/05/12 06:44:50;;;;;;;3.90;2.73;;;;;;;;;;5063625;28;20432;-87
2022/05/12 06:47:16;;;;;;;9.67;3.27;;;;;;;;;;5064400;28;20460;-87
2022/05/12 06:49:43;;;;;;;6.70;2.83;;;;;;;;;;5063484;28;20410;-87
2022/05/12 06:52:10;;;;;;;5.77;2.70;;;;;;;;;;5062903;28;20406;-88
2022/05/12 06:54:37;;;;;;;3.80;2.80;;;;;;;;;;5062954;28;20429;-87
2022/05/12 06:57:03;;;;;;;5.47;3.10;;;;;;;;;;5063742;28;20405;-88
2022/05/12 06:59:29;;;;;;;4.57;3.40;;;;;;;;;;5064341;28;20920;-87
2022/05/12 07:01:56;;;;;;;4.53;2.70;;;;;;;;;;5065196;28;20489;-87
2022/05/12 07:04:24;;;;;;;4.60;3.33;;;;;;;;;;5066282;28;20429;-85
2022/05/12 07:06:50;;;;;;;6.90;2.73;;;;;;;;;;5074473;28;20456;-87
2022/05/12 07:09:18;;;;;;;9.77;3.53;;;;;;;;;;5066475;28;20405;-87
2022/05/12 07:11:45;;;;;;;6.90;2.67;;;;;;;;;;5064317;28;20401;-85
2022/05/12 07:14:12;;;;;;;5.03;3.67;;;;;;;;;;5046416;28;20483;-87
2022/05/12 07:16:38;;;;;;;8.70;3.07;;;;;;;;;;5063774;28;20829;-85
2022/05/12 07:19:04;;;;;;;8.50;2.90;;;;;;;;;;5062770;28;20418;-87
2022/05/12 07:27:00;;;;;;;5.70;2.20;;;;;;;;;;5063064;28;20448;-88
2022/05/12 07:29:27;;;;;;;5.20;3.63;;;;;;;;;;5063014;28;20402;-87
2022/05/12 07:31:54;;;;;;;4.50;3.33;;;;;;;;;;5063311;28;20406;-87
2022/05/12 07:34:20;;;;;;;8.07;3.10;;;;;;;;;;5063068;28;20417;-87
2022/05/12 07:36:50;;;;;;;4.43;2.80;;;;;;;;;;5045510;28;20905;-88
2022/05/12 07:39:17;;;;;;;4.10;2.33;;;;;;;;;;5062808;28;20432;-87
2022/05/12 07:41:43;;;;;;;4.40;2.83;;;;;;;;;;5063380;28;20410;-86
2022/05/12 07:44:09;;;;;;;4.43;2.87;;;;;;;;;;5062932;28;20494;-87
2022/05/12 07:46:37;;;;;;;6.83;3.07;;;;;;;;;;5062774;28;20456;-86
2022/05/12 07:49:03;;;;;;;3.50;2.33;;;;;;;;;;5062323;28;20405;-87
2022/05/12 07:51:29;;;;;;;5.40;2.70;;;;;;;;;;5062898;28;20397;-87
2022/05/12 07:53:55;;;;;;;8.90;3.53;;;;;;;;;;5063676;28;20894;-88
2022/05/12 07:56:22;;;;;;;11.10;2.83;;;;;;;;;;5046051;28;20417;-87
2022/05/12 07:58:49;;;;;;;5.00;3.13;;;;;;;;;;5065300;28;20413;-86
2022/05/12 08:01:15;;;;;;;7.73;3.30;;;;;;;;;;5067886;28;20404;-87
2022/05/12 08:03:42;;;;;;;5.10;2.90;;;;;;;;;;5067035;28;20406;-87
2022/05/12 08:06:08;;;;;;;6.40;3.33;;;;;;;;;;5069094;28;20556;-86
2022/05/12 08:08:35;;;;;;;6.17;2.63;;;;;;;;;;5067834;28;20895;-88
2022/05/12 08:11:02;;;;;;;6.37;2.63;;;;;;;;;;5067280;28;20405;-87
2022/05/12 08:13:28;;;;;;;5.00;3.40;;;;;;;;;;5089792;23;20488;-83
2022/05/12 08:15:55;;;;;;;5.30;3.80;;;;;;;;;;5062899;28;20433;-84
2022/05/12 08:18:22;;;;;;;8.97;2.90;;;;;;;;;;5065109;28;20479;-83
2022/05/12 08:20:48;;;;;;;11.80;3.40;;;;;;;;;;5065365;28;20865;-83
2022/05/12 08:23:14;;;;;;;7.40;3.20;;;;;;;;;;5066397;28;20420;-83
2022/05/12 08:25:41;;;;;;;3.43;2.90;;;;;;;;;;5065893;28;20467;-83
2022/05/12 08:28:07;;;;;;;10.27;3.47;;;;;;;;;;5047908;28;20413;-83
2022/05/12 08:30:34;;;;;;;7.70;3.83;;;;;;;;;;5064758;28;20398;-83
2022/05/12 08:33:03;;;;;;;6.70;3.53;;;;;;;;;;5064949;28;20398;-83
2022/05/12 08:35:29;;;;;;;5.03;3.10;;;;;;;;;;5047340;28;20529;-83
2022/05/12 08:37:55;;;;;;;5.30;3.40;;;;;;;;;;5065618;28;20405;-83
2022/05/12 08:40:30;;;;;;;6.57;3.87;;;;;;;;;;5064747;28;20401;-83
2022/05/12 08:42:59;;;;;;;6.40;3.63;;;;;;;;;;5065267;28;20405;-83
2022/05/12 08:45:25;;;;;;;11.70;4.20;;;;;;;;;;5065064;28;20475;-83
2022/05/12 08:47:51;;;;;;;9.57;3.67;;;;;;;;;;5063390;28;20437;-83
2022/05/12 08:50:23;;;;;;;7.73;3.97;;;;;;;;;;5037433;28;20437;-83
2022/05/12 08:52:51;;;;;;;6.10;3.70;;;;;;;;;;5042821;28;20417;-85
2022/05/12 08:55:17;;;;;;;8.27;3.73;;;;;;;;;;5044092;28;20430;-85
2022/05/12 08:57:52;;;;;;;4.87;3.83;;;;;;;;;;5042200;28;20410;-86
2022/05/12 09:00:19;;;;;;;6.53;3.63;;;;;;;;;;5039131;28;20418;-85
2022/05/12 09:02:45;;;;;;;5.80;3.47;;;;;;;;;;5039777;28;20438;-85
2022/05/12 09:05:13;;;;;;;9.40;3.50;;;;;;;;;;5045594;28;20433;-85
2022/05/12 09:07:45;;;;;;;6.27;3.10;;;;;;;;;;5053177;28;20427;-83
2022/05/12 09:10:30;;;;;;;7.10;3.83;;;;;;;;;;5032008;28;20449;-85
2022/05/12 09:13:07;;;;;;;5.70;3.23;;;;;;;;;;5041633;28;20415;-86
2022/05/12 09:15:37;;;;;;;4.03;3.17;;;;;;;;;;5030831;28;20414;-85
2022/05/12 09:18:14;;;;;;;5.17;3.80;;;;;;;;;;5043625;28;20461;-84
2022/05/12 09:20:40;;;;;;;6.43;4.60;;;;;;;;;;5039252;28;20413;-85
2022/05/12 09:23:06;;;;;;;5.63;3.90;;;;;;;;;;5035091;28;20413;-85
2022/05/12 09:25:36;;;;;;;7.73;3.97;;;;;;;;;;5036972;28;20447;-85
2022/05/12 09:28:20;;;;;;;8.80;4.13;;;;;;;;;;5027199;28;20922;-85
2022/05/12 09:30:48;;;;;;;14.87;5.07;;;;;;;;;;5044012;28;20415;-84
2022/05/12 09:33:22;;;;;;;12.80;3.70;;;;;;;;;;5047066;28;20422;-85
2022/05/12 09:35:56;;;;;;;10.30;4.00;;;;;;;;;;5046851;28;20390;-84
2022/05/12 09:38:25;;;;;;;8.33;4.20;;;;;;;;;;5042841;28;20435;-85
2022/05/12 09:40:51;;;;;;;10.37;4.30;;;;;;;;;;5016594;28;20426;-84
2022/05/12 09:43:20;;;;;;;8.60;6.00;;;;;;;;;;5043652;28;20426;-82
2022/05/12 09:46:02;;;;;;;6.47;3.67;;;;;;;;;;5029105;28;20525;-84
2022/05/12 09:48:29;;;;;;;6.37;3.93;;;;;;;;;;5058906;28;20433;-85
2022/05/12 09:51:13;;;;;;;7.37;3.60;;;;;;;;;;5057985;28;20430;-85
2022/05/12 09:53:39;;;;;;;9.50;4.00;;;;;;;;;;5040406;28;20461;-84
2022/05/12 09:56:07;;;;;;;6.63;3.63;;;;;;;;;;5040912;28;20425;-83
2022/05/12 09:58:41;;;;;;;11.20;3.63;;;;;;;;;;5034915;28;20783;-86
2022/05/12 10:01:13;;;;;;;8.03;3.50;;;;;;;;;;5042206;28;20418;-84
2022/05/12 10:09:15;;;;;;;5.80;3.70;;;;;;;;;;5038887;28;20490;-83
2022/05/12 10:11:49;;;;;;;9.40;4.10;;;;;;;;;;5037305;28;20415;-83
2022/05/12 10:14:34;;;;;;;7.50;3.83;;;;;;;;;;5027938;28;20449;-85
2022/05/12 10:17:02;;;;;;;8.33;3.93;;;;;;;;;;5039083;28;20410;-84
2022/05/12 10:19:29;;;;;;;7.60;3.37;;;;;;;;;;5040456;28;20489;-84
2022/05/12 10:22:08;;;;;;;6.00;3.50;;;;;;;;;;5042737;28;20783;-83
2022/05/12 10:24:41;;;;;;;6.30;3.67;;;;;;;;;;5041904;28;20454;-84
2022/05/12 10:27:19;;;;;;;7.73;3.73;;;;;;;;;;5043978;28;20477;-84
2022/05/12 10:29:45;;;;;;;11.10;3.30;;;;;;;;;;5050740;28;20425;-84
2022/05/12 10:32:33;;;;;;;5.60;3.53;;;;;;;;;;5039331;28;20411;-84
2022/05/12 10:35:18;;;;;;;6.80;3.60;;;;;;;;;;5037927;28;20441;-84
2022/05/12 10:37:53;;;;;;;4.37;3.33;;;;;;;;;;5032345;28;20514;-83
2022/05/12 10:40:38;;;;;;;6.43;3.25;;;;;;;;;;5034902;28;20441;-84
2022/05/12 10:43:23;;;;;;;5.93;2.97;;;;;;;;;;5027512;28;20207;-84
2022/05/12 10:46:04;;;;;;;5.60;2.83;;;;;;;;;;5017078;28;20450;-83
2022/05/12 10:48:34;;;;;;;5.05;3.20;;;;;;;;;;5039029;28;20417;-84
2022/05/12 10:51:02;;;;;;;6.33;3.63;;;;;;;;;;5038720;28;20254;-84
2022/05/12 10:53:48;;;;;;;4.93;3.08;;;;;;;;;;5040617;28;20433;-84
2022/05/12 10:56:14;;;;;;;6.03;3.20;;;;;;;;;;5044120;28;20691;-84
2022/05/12 10:58:51;;;;;;;8.43;3.67;;;;;;;;;;5042867;28;20403;-84
2022/05/12 11:01:20;;;;;;;8.47;3.20;;;;;;;;;;5041206;28;20768;-84
2022/05/12 11:03:53;;;;;;;6.40;3.43;;;;;;;;;;5040490;28;20488;-85
2022/05/12 11:06:20;;;;;;;6.90;3.00;;;;;;;;;;5023224;28;20455;-84
2022/05/12 11:08:49;;;;;;;6.78;3.40;;;;;;;;;;5040090;28;20452;-84
2022/05/12 11:11:24;;;;;;;7.93;3.30;;;;;;;;;;5038144;28;20179;-84
2022/05/12 11:14:02;;;;;;;8.57;3.63;;;;;;;;;;5040658;28;20457;-84
2022/05/12 11:16:31;;;;;;;5.50;3.20;;;;;;;;;;5039443;28;20886;-83
2022/05/12 11:19:18;;;;;;;5.20;3.37;;;;;;;;;;5042755;28;20661;-85
2022/05/12 11:21:52;;;;;;;4.50;3.57;;;;;;;;;;5042417;28;20434;-83
2022/05/12 11:24:25;;;;;;;6.80;3.23;;;;;;;;;;5043836;28;20457;-83
2022/05/12 11:27:03;;;;;;;6.33;3.97;;;;;;;;;;5040860;28;20449;-83
2022/05/12 11:29:48;;;;;;;5.27;3.50;;;;;;;;;;5023112;28;20410;-83
2022/05/12 11:32:23;;;;;;;6.97;4.03;;;;;;;;;;5023672;28;20421;-85
2022/05/12 11:35:16;;;;;;;5.73;3.30;;;;;;;;;;5023943;28;20498;-83
2022/05/12 11:37:42;;;;;;;11.20;4.33;;;;;;;;;;5038474;28;20782;-83
2022/05/12 11:40:09;;;;;;;7.47;3.63;;;;;;;;;;5041986;28;20473;-83
2022/05/12 11:45:42;;;;;;;5.47;3.50;;;;;;;;;;5040642;28;20988;-88
2022/05/12 11:48:24;;;;;;;7.40;3.90;;;;;;;;;;5042456;28;20407;-84
2022/05/12 11:51:03;;;;;;;6.47;3.90;;;;;;;;;;5048302;28;20398;-81
2022/05/12 11:53:48;;;;;;;10.33;4.17;;;;;;;;;;5029117;28;20430;-83
2022/05/12 11:56:32;;;;;;;6.00;4.10;;;;;;;;;;5043695;28;20790;-83
2022/05/12 11:59:13;;;;;;;8.87;3.70;;;;;;;;;;5043032;28;20397;-83
2022/05/12 12:01:39;;;;;;;7.33;4.00;;;;;;;;;;5042177;28;20415;-83
2022/05/12 12:04:06;;;;;;;8.93;3.37;;;;;;;;;;5041352;28;20430;-84
2022/05/12 12:06:38;;;;;;;4.70;3.77;;;;;;;;;;5041511;28;20458;-83
2022/05/12 12:09:23;;;;;;;5.70;3.50;;;;;;;;;;5042178;28;20405;-84
2022/05/12 12:11:49;;;;;;;5.80;3.30;;;;;;;;;;5041635;28;20437;-83
2022/05/12 12:14:35;;;;;;;4.47;3.87;;;;;;;;;;5042309;28;20438;-83
2022/05/12 12:17:04;;;;;;;9.00;3.87;;;;;;;;;;5024312;28;20436;-84
2022/05/12 12:19:50;;;;;;;5.03;3.60;;;;;;;;;;5042999;28;20402;-84
2022/05/12 12:22:38;;;;;;;5.83;3.70;;;;;;;;;;5042615;28;20402;-84
2022/05/12 12:25:10;;;;;;;9.67;3.77;;;;;;;;;;5025671;28;20437;-82
2022/05/12 12:27:39;;;;;;;6.67;3.70;;;;;;;;;;5026043;28;20960;-83
2022/05/12 12:30:24;;;;;;;4.63;3.70;;;;;;;;;;5043034;28;20407;-84
2022/05/12 12:33:08;;;;;;;8.37;4.60;;;;;;;;;;5043799;28;20404;-82
2022/05/12 12:35:50;;;;;;;3.53;3.23;;;;;;;;;;5041922;28;20387;-82
2022/05/12 12:38:35;;;;;;;6.27;3.43;;;;;;;;;;5043156;28;20375;-83
2022/05/12 12:41:02;;;;;;;7.63;3.70;;;;;;;;;;5025672;28;20469;-83
2022/05/12 12:43:31;;;;;;;7.67;4.10;;;;;;;;;;5047753;28;20426;-80
2022/05/12 12:45:57;;;;;;;5.67;3.77;;;;;;;;;;5049219;28;20457;-81
2022/05/12 12:48:32;;;;;;;6.47;3.80;;;;;;;;;;5047454;28;20428;-83
2022/05/12 12:50:59;;;;;;;9.60;4.20;;;;;;;;;;5043884;28;20425;-83
2022/05/12 12:56:30;;;;;;;8.10;3.40;;;;;;;;;;5043165;28;20795;-82
2022/05/12 12:56:31;;;;;;;5.77;3.33;;;;;;;;;;5043494;28;20395;-82
2022/05/12 12:58:58;;;;;;;4.40;3.40;;;;;;;;;;5048492;28;20845;-83
2022/05/12 13:01:35;;;;;;;8.17;3.90;;;;;;;;;;5051875;28;20490;-83
2022/05/12 13:04:01;;;;;;;7.87;4.00;;;;;;;;;;5030992;28;20452;-84
2022/05/12 13:06:30;;;;;;;6.90;3.67;;;;;;;;;;5049413;28;20868;-83
2022/05/12 13:08:58;;;;;;;9.30;5.20;;;;;;;;;;5051069;28;20407;-82
2022/05/12 13:11:24;;;;;;;11.00;4.20;;;;;;;;;;5052398;28;20395;-84
2022/05/12 13:13:52;;;;;;;5.20;3.40;;;;;;;;;;5050569;28;20488;-83
2022/05/12 13:16:21;;;;;;;5.73;3.70;;;;;;;;;;5052565;28;20525;-82
2022/05/12 13:18:49;;;;;;;6.63;4.40;;;;;;;;;;5054500;28;20426;-82
2022/05/12 13:21:26;;;;;;;8.07;4.17;;;;;;;;;;5054460;28;20418;-84
2022/05/12 13:24:04;;;;;;;8.73;3.50;;;;;;;;;;5051596;28;20449;-83
2022/05/12 13:26:31;;;;;;;6.33;3.67;;;;;;;;;;5027545;28;20996;-84
2022/05/12 13:28:58;;;;;;;4.93;3.60;;;;;;;;;;5047000;28;20421;-84
2022/05/12 13:31:26;;;;;;;4.83;4.00;;;;;;;;;;5046140;28;20402;-84
2022/05/12 13:33:57;;;;;;;7.83;3.93;;;;;;;;;;5045660;28;20434;-83
2022/05/12 13:36:25;;;;;;;5.43;3.70;;;;;;;;;;5027288;28;20430;-84
2022/05/12 13:38:51;;;;;;;5.03;4.00;;;;;;;;;;5045639;28;20432;-83
2022/05/12 13:41:31;;;;;;;5.77;3.80;;;;;;;;;;5039868;28;20418;-83
2022/05/12 13:44:07;;;;;;;7.80;4.43;;;;;;;;;;5037502;28;20809;-84
2022/05/12 13:46:35;;;;;;;7.37;3.97;;;;;;;;;;5039008;28;20477;-83
2022/05/12 13:49:02;;;;;;;5.20;3.97;;;;;;;;;;5047862;28;20470;-83
2022/05/12 13:51:41;;;;;;;5.90;3.67;;;;;;;;;;5049864;28;20422;-83
2022/05/12 13:54:08;;;;;;;5.30;3.57;;;;;;;;;;5030487;28;20443;-84
2022/05/12 13:56:36;;;;;;;4.20;3.53;;;;;;;;;;5029578;28;20434;-84
2022/05/12 13:59:13;;;;;;;11.77;3.47;;;;;;;;;;5040920;28;20422;-82
2022/05/12 14:01:40;;;;;;;8.17;4.40;;;;;;;;;;5037385;28;20410;-81
2022/05/12 14:04:06;;;;;;;9.50;3.77;;;;;;;;;;5046717;28;20458;-83
2022/05/12 14:06:32;;;;;;;6.67;3.47;;;;;;;;;;5042836;28;20537;-83
2022/05/12 14:09:13;;;;;;;5.60;3.43;;;;;;;;;;5023489;28;20489;-83
2022/05/12 14:11:39;;;;;;;5.23;3.53;;;;;;;;;;5040864;28;20421;-82
2022/05/12 14:19:41;;;;;;;8.37;3.70;;;;;;;;;;5041349;28;20421;-83
2022/05/12 14:22:11;;;;;;;4.50;3.57;;;;;;;;;;5041254;28;20407;-83
2022/05/12 14:24:40;;;;;;;5.17;3.17;;;;;;;;;;5040109;28;20454;-84
2022/05/12 14:27:06;;;;;;;4.27;3.13;;;;;;;;;;5041658;28;20548;-83
2022/05/12 14:29:33;;;;;;;7.47;3.90;;;;;;;;;;5041116;28;20414;-82
2022/05/12 14:31:59;;;;;;;4.97;3.43;;;;;;;;;;5042576;28;20927;-82
2022/05/12 14:34:26;;;;;;;6.47;3.60;;;;;;;;;;5042674;28;20535;-83
2022/05/12 14:36:53;;;;;;;6.73;3.63;;;;;;;;;;5041387;28;20402;-83
2022/05/12 14:39:20;;;;;;;8.50;3.60;;;;;;;;;;5039935;28;20422;-83
2022/05/12 14:41:46;;;;;;;4.50;3.33;;;;;;;;;;5037395;28;20422;-84
2022/05/12 14:44:12;;;;;;;5.67;3.53;;;;;;;;;;5035445;28;20518;-82
2022/05/12 14:46:40;;;;;;;8.00;3.70;;;;;;;;;;5038518;28;20450;-82
2022/05/12 14:49:07;;;;;;;9.50;4.27;;;;;;;;;;5039828;28;20419;-83
2022/05/12 14:51:33;;;;;;;4.50;3.53;;;;;;;;;;5040843;28;20410;-82
2022/05/12 14:53:59;;;;;;;9.53;3.67;;;;;;;;;;5039540;28;20442;-84
2022/05/12 14:56:26;;;;;;;10.00;4.10;;;;;;;;;;5038335;28;20423;-82
2022/05/12 14:58:52;;;;;;;6.10;3.33;;;;;;;;;;5038217;28;20458;-82
2022/05/12 15:01:18;;;;;;;7.77;3.60;;;;;;;;;;5039396;28;20811;-82
2022/05/12 15:03:46;;;;;;;9.03;3.30;;;;;;;;;;5039310;28;20819;-82
2022/05/12 15:06:13;;;;;;;3.80;3.40;;;;;;;;;;5037762;28;20464;-86
2022/05/12 15:08:39;;;;;;;6.47;3.70;;;;;;;;;;5021012;28;20438;-82
2022/05/12 15:11:07;;;;;;;6.30;3.70;;;;;;;;;;5037517;28;20410;-82
2022/05/12 15:13:33;;;;;;;6.20;3.37;;;;;;;;;;5038570;28;20490;-83
2022/05/12 15:15:59;;;;;;;5.40;3.73;;;;;;;;;;5040661;28;20398;-82
2022/05/12 15:18:25;;;;;;;6.67;4.73;;;;;;;;;;5038928;28;20996;-83